sensor_id;sensor_type;location;lat;lon;timestamp;pressure;altitude;pressure_sealevel;temperature;humidity
7168;BME280;3625;51.762;14.320;2023-03-22T00:00:46;100391.72;;;10.27;100.00
7168;BME280;3625;51.762;14.320;2023-03-22T00:03:17;100394.28;;;10.30;100.00
7168;BME280;3625;51.762;14.320;2023-03-22T00:05:46;100397.72;;;10.35;100.00
7168;BME280;3625;51.762;14.320;2023-03-22T00:08:15;100392.41;;;10.36;100.00
7168;BME280;3625;51.762;14.320;2023-03-22T00:10:44;100386.25;;;10.34;100.00
7168;BME280;3625;51.762;14.320;2023-03-22T00:13:15;100382.78;;;10.32;100.00
7168;BME280;3625;51.762;14.320;2023-03-22T00:15:44;100380.19;;;10.29;100.00
7168;BME280;3625;51.762;14.320;2023-03-22T00:18:16;100382.03;;;10.27;100.00
7168;BME280;3625;51.762;14.320;2023-03-22T00:20:49;100377.69;;;10.23;100.00
7168;BME280;3625;51.762;14.320;2023-03-22T00:23:18;100377.81;;;10.18;100.00
7168;BME280;3625;51.762;14.320;2023-03-22T00:25:47;100386.53;;;10.20;100.00
7168;BME280;3625;51.762;14.320;2023-03-22T00:28:16;100377.81;;;10.18;100.00
7168;BME280;3625;51.762;14.320;2023-03-22T00:30:52;100375.13;;;10.20;100.00
7168;BME280;3625;51.762;14.320;2023-03-22T00:33:23;100369.84;;;10.20;100.00
7168;BME280;3625;51.762;14.320;2023-03-22T00:35:53;100375.97;;;10.20;100.00
7168;BME280;3625;51.762;14.320;2023-03-22T00:38:22;100366.22;;;10.24;100.00
7168;BME280;3625;51.762;14.320;2023-03-22T00:41:09;100369.75;;;10.23;100.00
7168;BME280;3625;51.762;14.320;2023-03-22T00:43:39;100367.91;;;10.28;100.00
7168;BME280;3625;51.762;14.320;2023-03-22T00:46:08;100362.63;;;10.27;100.00
7168;BME280;3625;51.762;14.320;2023-03-22T00:48:39;100363.53;;;10.26;100.00
7168;BME280;3625;51.762;14.320;2023-03-22T00:51:08;100364.38;;;10.28;100.00
7168;BME280;3625;51.762;14.320;2023-03-22T00:53:38;100366.16;;;10.27;100.00
7168;BME280;3625;51.762;14.320;2023-03-22T00:56:11;100365.25;;;10.28;100.00
7168;BME280;3625;51.762;14.320;2023-03-22T00:58:54;100366.91;;;10.32;100.00
7168;BME280;3625;51.762;14.320;2023-03-22T01:01:23;100363.41;;;10.30;100.00
7168;BME280;3625;51.762;14.320;2023-03-22T01:03:55;100362.63;;;10.28;100.00
7168;BME280;3625;51.762;14.320;2023-03-22T01:06:24;100349.50;;;10.22;100.00
7168;BME280;3625;51.762;14.320;2023-03-22T01:08:53;100364.66;;;10.12;100.00
7168;BME280;3625;51.762;14.320;2023-03-22T01:11:24;100356.00;;;10.06;100.00
7168;BME280;3625;51.762;14.320;2023-03-22T01:13:53;100363.19;;;10.01;100.00
7168;BME280;3625;51.762;14.320;2023-03-22T01:16:22;100358.78;;;10.00;100.00
7168;BME280;3625;51.762;14.320;2023-03-22T01:18:51;100356.19;;;9.97;100.00
7168;BME280;3625;51.762;14.320;2023-03-22T01:21:21;100365.03;;;9.96;100.00
7168;BME280;3625;51.762;14.320;2023-03-22T01:23:50;100332.03;;;9.75;100.00
7168;BME280;3625;51.762;14.320;2023-03-22T01:26:18;100357.25;;;9.90;100.00
7168;BME280;3625;51.762;14.320;2023-03-22T01:28:48;100360.00;;;9.85;100.00
7168;BME280;3625;51.762;14.320;2023-03-22T01:31:16;100359.03;;;9.88;100.00
7168;BME280;3625;51.762;14.320;2023-03-22T01:33:45;100354.56;;;9.91;100.00
7168;BME280;3625;51.762;14.320;2023-03-22T01:36:14;100350.22;;;9.89;100.00
7168;BME280;3625;51.762;14.320;2023-03-22T01:38:45;100356.41;;;9.88;100.00
7168;BME280;3625;51.762;14.320;2023-03-22T01:41:15;100344.09;;;9.87;100.00
7168;BME280;3625;51.762;14.320;2023-03-22T01:43:44;100339.75;;;9.84;100.00
7168;BME280;3625;51.762;14.320;2023-03-22T01:46:13;100335.44;;;9.78;100.00
7168;BME280;3625;51.762;14.320;2023-03-22T01:48:43;100323.38;;;9.67;100.00
7168;BME280;3625;51.762;14.320;2023-03-22T01:51:17;100323.72;;;9.50;100.00
7168;BME280;3625;51.762;14.320;2023-03-22T01:54:23;100327.50;;;9.37;100.00
7168;BME280;3625;51.762;14.320;2023-03-22T01:56:59;100271.13;;;8.95;100.00
7168;BME280;3625;51.762;14.320;2023-03-22T01:59:35;100327.94;;;9.14;100.00
7168;BME280;3625;51.762;14.320;2023-03-22T02:02:15;100328.97;;;9.05;100.00
7168;BME280;3625;51.762;14.320;2023-03-22T02:04:53;100319.44;;;8.98;100.00
7168;BME280;3625;51.762;14.320;2023-03-22T02:07:27;100319.47;;;8.97;100.00
7168;BME280;3625;51.762;14.320;2023-03-22T02:10:02;100322.16;;;8.94;100.00
7168;BME280;3625;51.762;14.320;2023-03-22T02:12:49;100329.91;;;9.03;100.00
7168;BME280;3625;51.762;14.320;2023-03-22T02:15:50;100326.66;;;8.89;100.00
7168;BME280;3625;51.762;14.320;2023-03-22T02:18:49;100318.88;;;8.81;100.00
7168;BME280;3625;51.762;14.320;2023-03-22T02:21:52;100325.94;;;8.78;100.00
7168;BME280;3625;51.762;14.320;2023-03-22T02:34:16;100315.81;;;8.53;100.00
7168;BME280;3625;51.762;14.320;2023-03-22T02:37:06;100323.00;;;8.44;100.00
7168;BME280;3625;51.762;14.320;2023-03-22T02:39:51;100308.16;;;8.38;100.00
7168;BME280;3625;51.762;14.320;2023-03-22T02:42:34;100310.81;;;8.37;100.00
7168;BME280;3625;51.762;14.320;2023-03-22T02:45:12;100304.75;;;8.30;100.00
7168;BME280;3625;51.762;14.320;2023-03-22T02:47:50;100303.03;;;8.26;100.00
7168;BME280;3625;51.762;14.320;2023-03-22T02:50:25;100301.31;;;8.23;100.00
7168;BME280;3625;51.762;14.320;2023-03-22T02:53:00;100297.00;;;8.18;100.00
7168;BME280;3625;51.762;14.320;2023-03-22T02:55:36;100300.56;;;8.14;100.00
7168;BME280;3625;51.762;14.320;2023-03-22T02:58:09;100299.75;;;8.10;100.00
7168;BME280;3625;51.762;14.320;2023-03-22T03:00:40;100299.88;;;8.03;100.00
7168;BME280;3625;51.762;14.320;2023-03-22T03:03:12;100300.81;;;7.97;100.00
7168;BME280;3625;51.762;14.320;2023-03-22T03:05:50;100299.19;;;7.88;100.00
7168;BME280;3625;51.762;14.320;2023-03-22T03:08:22;100300.16;;;7.81;100.00
7168;BME280;3625;51.762;14.320;2023-03-22T03:10:53;100293.16;;;7.79;100.00
7168;BME280;3625;51.762;14.320;2023-03-22T03:13:22;100290.63;;;7.73;100.00
7168;BME280;3625;51.762;14.320;2023-03-22T03:15:54;100296.72;;;7.78;100.00
7168;BME280;3625;51.762;14.320;2023-03-22T03:18:41;100295.81;;;7.79;100.00
7168;BME280;3625;51.762;14.320;2023-03-22T03:21:20;100291.47;;;7.75;100.00
7168;BME280;3625;51.762;14.320;2023-03-22T03:23:55;100288.94;;;7.69;100.00
7168;BME280;3625;51.762;14.320;2023-03-22T03:26:34;100285.44;;;7.68;100.00
7168;BME280;3625;51.762;14.320;2023-03-22T03:29:12;100289.00;;;7.64;100.00
7168;BME280;3625;51.762;14.320;2023-03-22T03:31:44;100295.22;;;7.58;100.00
7168;BME280;3625;51.762;14.320;2023-03-22T03:34:19;100257.72;;;7.40;100.00
7168;BME280;3625;51.762;14.320;2023-03-22T03:36:54;100292.53;;;7.62;100.00
7168;BME280;3625;51.762;14.320;2023-03-22T03:39:27;100306.63;;;7.59;100.00
7168;BME280;3625;51.762;14.320;2023-03-22T03:42:00;100305.75;;;7.58;100.00
7168;BME280;3625;51.762;14.320;2023-03-22T03:44:33;100298.72;;;7.59;100.00
7168;BME280;3625;51.762;14.320;2023-03-22T03:47:04;100303.03;;;7.65;100.00
7168;BME280;3625;51.762;14.320;2023-03-22T03:49:35;100307.41;;;7.66;100.00
7168;BME280;3625;51.762;14.320;2023-03-22T03:52:05;100296.78;;;7.70;100.00
7168;BME280;3625;51.762;14.320;2023-03-22T03:54:34;100307.31;;;7.72;100.00
7168;BME280;3625;51.762;14.320;2023-03-22T03:57:07;100307.25;;;7.78;100.00
7168;BME280;3625;51.762;14.320;2023-03-22T03:59:37;100308.16;;;7.74;100.00
7168;BME280;3625;51.762;14.320;2023-03-22T04:02:15;100303.75;;;7.77;100.00
7168;BME280;3625;51.762;14.320;2023-03-22T04:04:44;100306.31;;;7.82;100.00
7168;BME280;3625;51.762;14.320;2023-03-22T04:07:13;100305.50;;;7.78;100.00
7168;BME280;3625;51.762;14.320;2023-03-22T04:09:42;100300.31;;;7.71;100.00
7168;BME280;3625;51.762;14.320;2023-03-22T04:12:38;100307.38;;;7.69;100.00
7168;BME280;3625;51.762;14.320;2023-03-22T04:15:12;100306.44;;;7.73;100.00
7168;BME280;3625;51.762;14.320;2023-03-22T04:17:43;100316.09;;;7.72;100.00
7168;BME280;3625;51.762;14.320;2023-03-22T04:20:14;100308.13;;;7.77;100.00
7168;BME280;3625;51.762;14.320;2023-03-22T04:22:44;100314.41;;;7.67;100.00
7168;BME280;3625;51.762;14.320;2023-03-22T04:25:14;100307.31;;;7.72;100.00
7168;BME280;3625;51.762;14.320;2023-03-22T04:27:57;100309.94;;;7.72;100.00
7168;BME280;3625;51.762;14.320;2023-03-22T04:30:32;100310.69;;;7.81;100.00
7168;BME280;3625;51.762;14.320;2023-03-22T04:33:25;100312.47;;;7.79;100.00
7168;BME280;3625;51.762;14.320;2023-03-22T04:36:11;100322.22;;;7.73;100.00
7168;BME280;3625;51.762;14.320;2023-03-22T04:39:09;100322.22;;;7.73;100.00
7168;BME280;3625;51.762;14.320;2023-03-22T04:41:42;100315.22;;;7.70;100.00
7168;BME280;3625;51.762;14.320;2023-03-22T04:44:13;100315.28;;;7.69;100.00
7168;BME280;3625;51.762;14.320;2023-03-22T04:46:47;100312.72;;;7.61;100.00
7168;BME280;3625;51.762;14.320;2023-03-22T04:49:17;100317.06;;;7.64;100.00
7168;BME280;3625;51.762;14.320;2023-03-22T04:51:46;100318.81;;;7.66;100.00
7168;BME280;3625;51.762;14.320;2023-03-22T04:54:35;100310.03;;;7.67;100.00
7168;BME280;3625;51.762;14.320;2023-03-22T04:57:05;100314.41;;;7.67;100.00
7168;BME280;3625;51.762;14.320;2023-03-22T04:59:43;100315.28;;;7.67;100.00
7168;BME280;3625;51.762;14.320;2023-03-22T05:02:11;100317.09;;;7.62;100.00
7168;BME280;3625;51.762;14.320;2023-03-22T05:04:42;100313.56;;;7.62;100.00
7168;BME280;3625;51.762;14.320;2023-03-22T05:07:21;100317.19;;;7.54;100.00
7168;BME280;3625;51.762;14.320;2023-03-22T05:09:54;100319.88;;;7.51;100.00
7168;BME280;3625;51.762;14.320;2023-03-22T05:12:23;100318.13;;;7.50;100.00
7168;BME280;3625;51.762;14.320;2023-03-22T05:15:02;100312.75;;;7.58;100.00
7168;BME280;3625;51.762;14.320;2023-03-22T05:17:36;100318.81;;;7.66;100.00
7168;BME280;3625;51.762;14.320;2023-03-22T05:20:05;100315.16;;;7.76;100.00
7168;BME280;3625;51.762;14.320;2023-03-22T05:22:38;100317.72;;;7.82;100.00
7168;BME280;3625;51.762;14.320;2023-03-22T05:25:10;100321.13;;;7.89;100.00
7168;BME280;3625;51.762;14.320;2023-03-22T05:27:43;100319.31;;;7.94;100.00
7168;BME280;3625;51.762;14.320;2023-03-22T05:30:33;100321.94;;;7.95;100.00
7168;BME280;3625;51.762;14.320;2023-03-22T05:33:17;100321.88;;;7.99;100.00
7168;BME280;3625;51.762;14.320;2023-03-22T05:35:50;100322.81;;;7.94;100.00
7168;BME280;3625;51.762;14.320;2023-03-22T05:38:19;100327.22;;;7.94;100.00
7168;BME280;3625;51.762;14.320;2023-03-22T05:40:51;100331.59;;;7.95;100.00
7168;BME280;3625;51.762;14.320;2023-03-22T05:43:20;100320.97;;;8.00;100.00
7168;BME280;3625;51.762;14.320;2023-03-22T05:45:51;100326.16;;;8.06;100.00
7168;BME280;3625;51.762;14.320;2023-03-22T05:48:43;100325.13;;;8.16;100.00
7168;BME280;3625;51.762;14.320;2023-03-22T05:51:14;100326.78;;;8.23;100.00
7168;BME280;3625;51.762;14.320;2023-03-22T05:53:47;100328.44;;;8.31;100.00
7168;BME280;3625;51.762;14.320;2023-03-22T05:56:20;100327.50;;;8.39;100.00
7168;BME280;3625;51.762;14.320;2023-03-22T05:58:58;100326.50;;;8.44;100.00
7168;BME280;3625;51.762;14.320;2023-03-22T06:01:28;100328.19;;;8.48;100.00
7168;BME280;3625;51.762;14.320;2023-03-22T06:04:12;100324.50;;;8.60;100.00
7168;BME280;3625;51.762;14.320;2023-03-22T06:06:59;100329.56;;;8.72;100.00
7168;BME280;3625;51.762;14.320;2023-03-22T06:09:47;100324.97;;;8.83;100.00
7168;BME280;3625;51.762;14.320;2023-03-22T06:12:20;100328.28;;;8.94;100.00
7168;BME280;3625;51.762;14.320;2023-03-22T06:15:17;100332.47;;;9.07;100.00
7168;BME280;3625;51.762;14.320;2023-03-22T06:18:13;100320.75;;;9.22;100.00
7168;BME280;3625;51.762;14.320;2023-03-22T06:20:47;100325.75;;;9.36;100.00
7168;BME280;3625;51.762;14.320;2023-03-22T06:23:21;100320.19;;;9.51;100.00
7168;BME280;3625;51.762;14.320;2023-03-22T06:26:32;100311.66;;;9.80;100.00
7168;BME280;3625;51.762;14.320;2023-03-22T06:29:01;100308.72;;;9.94;100.00
7168;BME280;3625;51.762;14.320;2023-03-22T06:31:32;100305.00;;;10.02;100.00
7168;BME280;3625;51.762;14.320;2023-03-22T06:34:05;100289.28;;;9.95;100.00
7168;BME280;3625;51.762;14.320;2023-03-22T06:36:40;100310.94;;;10.12;100.00
7168;BME280;3625;51.762;14.320;2023-03-22T06:39:16;100307.31;;;10.16;100.00
7168;BME280;3625;51.762;14.320;2023-03-22T06:41:46;100302.94;;;10.15;100.00
7168;BME280;3625;51.762;14.320;2023-03-22T06:44:15;100302.00;;;10.19;100.00
7168;BME280;3625;51.762;14.320;2023-03-22T06:46:49;100306.06;;;10.34;100.00
7168;BME280;3625;51.762;14.320;2023-03-22T06:49:42;100305.88;;;10.41;100.00
7168;BME280;3625;51.762;14.320;2023-03-22T06:52:18;100296.88;;;10.48;100.00
7168;BME280;3625;51.762;14.320;2023-03-22T06:54:47;100300.81;;;10.68;100.00
7168;BME280;3625;51.762;14.320;2023-03-22T06:57:19;100298.50;;;10.89;100.00
7168;BME280;3625;51.762;14.320;2023-03-22T06:59:48;100293.66;;;11.05;100.00
7168;BME280;3625;51.762;14.320;2023-03-22T07:02:42;100287.91;;;11.22;100.00
7168;BME280;3625;51.762;14.320;2023-03-22T07:05:27;100287.53;;;11.35;100.00
7168;BME280;3625;51.762;14.320;2023-03-22T07:07:56;100295.97;;;11.50;100.00
7168;BME280;3625;51.762;14.320;2023-03-22T07:10:26;100281.50;;;11.60;100.00
7168;BME280;3625;51.762;14.320;2023-03-22T07:12:56;100293.59;;;11.70;100.00
7168;BME280;3625;51.762;14.320;2023-03-22T07:15:24;100289.25;;;11.67;100.00
7168;BME280;3625;51.762;14.320;2023-03-22T07:18:02;100294.38;;;11.75;100.00
7168;BME280;3625;51.762;14.320;2023-03-22T07:20:35;100295.31;;;11.71;100.00
7168;BME280;3625;51.762;14.320;2023-03-22T07:23:08;100293.91;;;11.90;100.00
7168;BME280;3625;51.762;14.320;2023-03-22T07:25:47;100307.25;;;11.87;100.00
7168;BME280;3625;51.762;14.320;2023-03-22T07:28:22;100301.56;;;11.99;100.00
7168;BME280;3625;51.762;14.320;2023-03-22T07:30:59;100303.41;;;11.97;100.00
7168;BME280;3625;51.762;14.320;2023-03-22T07:33:32;100301.97;;;12.15;100.00
7168;BME280;3625;51.762;14.320;2023-03-22T07:36:03;100306.56;;;12.10;100.00
7168;BME280;3625;51.762;14.320;2023-03-22T07:38:32;100302.25;;;12.06;100.00
7168;BME280;3625;51.762;14.320;2023-03-22T07:41:04;100297.63;;;12.13;100.00
7168;BME280;3625;51.762;14.320;2023-03-22T07:43:53;100295.66;;;12.19;100.00
7168;BME280;3625;51.762;14.320;2023-03-22T07:46:46;100292.53;;;12.34;100.00
7168;BME280;3625;51.762;14.320;2023-03-22T07:49:27;100285.25;;;12.39;100.00
7168;BME280;3625;51.762;14.320;2023-03-22T07:52:10;100291.94;;;12.53;100.00
7168;BME280;3625;51.762;14.320;2023-03-22T07:54:40;100289.09;;;12.57;100.00
7168;BME280;3625;51.762;14.320;2023-03-22T07:57:09;100291.50;;;12.65;100.00
7168;BME280;3625;51.762;14.320;2023-03-22T07:59:43;100290.75;;;12.88;100.00
7168;BME280;3625;51.762;14.320;2023-03-22T08:02:13;100288.88;;;13.16;100.00
7168;BME280;3625;51.762;14.320;2023-03-22T08:04:49;100293.16;;;13.20;100.00
7168;BME280;3625;51.762;14.320;2023-03-22T08:07:30;100285.38;;;13.40;100.00
7168;BME280;3625;51.762;14.320;2023-03-22T08:09:59;100286.06;;;13.69;100.00
7168;BME280;3625;51.762;14.320;2023-03-22T08:12:28;100289.75;;;13.88;100.00
7168;BME280;3625;51.762;14.320;2023-03-22T08:15:08;100278.13;;;13.90;100.00
7168;BME280;3625;51.762;14.320;2023-03-22T08:17:37;100256.72;;;13.93;100.00
7168;BME280;3625;51.762;14.320;2023-03-22T08:20:12;100286.69;;;14.20;100.00
7168;BME280;3625;51.762;14.320;2023-03-22T08:22:50;100288.38;;;14.23;100.00
7168;BME280;3625;51.762;14.320;2023-03-22T08:25:49;100281.81;;;14.31;100.00
7168;BME280;3625;51.762;14.320;2023-03-22T08:28:18;100287.88;;;14.35;100.00
7168;BME280;3625;51.762;14.320;2023-03-22T08:30:49;100288.63;;;14.17;100.00
7168;BME280;3625;51.762;14.320;2023-03-22T08:33:18;100288.81;;;14.34;100.00
7168;BME280;3625;51.762;14.320;2023-03-22T08:35:50;100287.56;;;14.44;100.00
7168;BME280;3625;51.762;14.320;2023-03-22T08:38:22;100284.31;;;14.58;100.00
7168;BME280;3625;51.762;14.320;2023-03-22T08:40:53;100287.63;;;14.19;100.00
7168;BME280;3625;51.762;14.320;2023-03-22T08:43:24;100292.56;;;14.28;100.00
7168;BME280;3625;51.762;14.320;2023-03-22T08:45:54;100295.03;;;14.56;100.00
7168;BME280;3625;51.762;14.320;2023-03-22T08:48:24;100295.31;;;14.70;100.00
7168;BME280;3625;51.762;14.320;2023-03-22T08:51:06;100291.22;;;14.84;100.00
7168;BME280;3625;51.762;14.320;2023-03-22T08:54:06;100290.63;;;15.18;100.00
7168;BME280;3625;51.762;14.320;2023-03-22T08:56:59;100298.81;;;15.33;96.09
7168;BME280;3625;51.762;14.320;2023-03-22T08:59:49;100300.66;;;15.31;92.38
7168;BME280;3625;51.762;14.320;2023-03-22T09:02:38;100299.09;;;15.27;92.86
7168;BME280;3625;51.762;14.320;2023-03-22T09:05:08;100297.13;;;15.31;91.16
7168;BME280;3625;51.762;14.320;2023-03-22T09:07:39;100302.66;;;15.67;91.58
7168;BME280;3625;51.762;14.320;2023-03-22T09:10:32;100293.75;;;15.87;87.74
7168;BME280;3625;51.762;14.320;2023-03-22T09:13:03;100294.56;;;16.07;86.76
7168;BME280;3625;51.762;14.320;2023-03-22T09:15:32;100289.78;;;16.14;87.32
7168;BME280;3625;51.762;14.320;2023-03-22T09:18:13;100290.69;;;16.32;84.24
7168;BME280;3625;51.762;14.320;2023-03-22T09:20:44;100283.75;;;16.46;83.85
7168;BME280;3625;51.762;14.320;2023-03-22T09:23:20;100290.41;;;16.38;80.75
7168;BME280;3625;51.762;14.320;2023-03-22T09:25:50;100282.66;;;16.50;82.47
7168;BME280;3625;51.762;14.320;2023-03-22T09:28:23;100279.09;;;16.33;81.54
7168;BME280;3625;51.762;14.320;2023-03-22T09:31:08;100277.09;;;16.36;80.58
7168;BME280;3625;51.762;14.320;2023-03-22T09:33:39;100280.00;;;16.50;82.35
7168;BME280;3625;51.762;14.320;2023-03-22T09:36:12;100275.13;;;16.58;79.42
7168;BME280;3625;51.762;14.320;2023-03-22T09:38:41;100269.44;;;16.66;79.23
7168;BME280;3625;51.762;14.320;2023-03-22T09:41:14;100254.34;;;16.82;81.41
7168;BME280;3625;51.762;14.320;2023-03-22T09:43:47;100260.09;;;16.92;81.09
7168;BME280;3625;51.762;14.320;2023-03-22T09:46:26;100260.09;;;16.92;79.19
7168;BME280;3625;51.762;14.320;2023-03-22T09:48:58;100254.50;;;16.79;77.41
7168;BME280;3625;51.762;14.320;2023-03-22T09:51:38;100247.75;;;16.72;77.42
7168;BME280;3625;51.762;14.320;2023-03-22T09:54:14;100242.06;;;16.78;76.78
7168;BME280;3625;51.762;14.320;2023-03-22T09:56:50;100245.06;;;16.72;78.06
7168;BME280;3625;51.762;14.320;2023-03-22T09:59:24;100248.22;;;16.63;80.13
7168;BME280;3625;51.762;14.320;2023-03-22T10:01:59;100240.78;;;16.34;79.27
7168;BME280;3625;51.762;14.320;2023-03-22T10:04:49;100191.19;;;15.92;80.88
7168;BME280;3625;51.762;14.320;2023-03-22T10:07:26;100226.47;;;15.80;82.60
7168;BME280;3625;51.762;14.320;2023-03-22T10:10:08;100233.47;;;15.64;85.22
7168;BME280;3625;51.762;14.320;2023-03-22T10:12:48;100227.47;;;15.59;85.68
7168;BME280;3625;51.762;14.320;2023-03-22T10:15:23;100228.88;;;15.47;86.59
7168;BME280;3625;51.762;14.320;2023-03-22T10:17:59;100188.94;;;15.27;85.50
7168;BME280;3625;51.762;14.320;2023-03-22T10:20:35;100219.16;;;15.46;84.94
7168;BME280;3625;51.762;14.320;2023-03-22T10:23:09;100214.59;;;15.48;84.72
7168;BME280;3625;51.762;14.320;2023-03-22T10:25:41;100206.19;;;15.57;85.76
7168;BME280;3625;51.762;14.320;2023-03-22T10:28:17;100211.28;;;15.63;85.50
7168;BME280;3625;51.762;14.320;2023-03-22T10:30:51;100211.69;;;15.54;83.65
7168;BME280;3625;51.762;14.320;2023-03-22T10:33:27;100207.69;;;15.44;82.89
7168;BME280;3625;51.762;14.320;2023-03-22T10:36:01;100201.56;;;15.42;84.26
7168;BME280;3625;51.762;14.320;2023-03-22T10:38:31;100202.66;;;15.38;83.96
7168;BME280;3625;51.762;14.320;2023-03-22T10:41:03;100202.78;;;15.35;82.15
7168;BME280;3625;51.762;14.320;2023-03-22T10:43:36;100194.56;;;15.39;82.72
7168;BME280;3625;51.762;14.320;2023-03-22T10:46:13;100184.75;;;15.40;82.35
7168;BME280;3625;51.762;14.320;2023-03-22T10:48:45;100177.91;;;15.34;82.98
7168;BME280;3625;51.762;14.320;2023-03-22T10:51:20;100187.78;;;15.32;82.64
7168;BME280;3625;51.762;14.320;2023-03-22T10:53:54;100188.38;;;15.39;83.69
7168;BME280;3625;51.762;14.320;2023-03-22T10:56:24;100187.44;;;15.40;82.83
7168;BME280;3625;51.762;14.320;2023-03-22T10:58:55;100184.75;;;15.40;80.16
7168;BME280;3625;51.762;14.320;2023-03-22T11:01:28;100185.44;;;15.45;80.65
7168;BME280;3625;51.762;14.320;2023-03-22T11:04:04;100184.59;;;15.63;80.96
7168;BME280;3625;51.762;14.320;2023-03-22T11:06:38;100182.00;;;15.80;80.85
7168;BME280;3625;51.762;14.320;2023-03-22T11:09:14;100176.13;;;16.27;78.95
7168;BME280;3625;51.762;14.320;2023-03-22T11:11:48;100178.69;;;16.65;76.08
7168;BME280;3625;51.762;14.320;2023-03-22T11:14:24;100186.03;;;17.11;72.36
7168;BME280;3625;51.762;14.320;2023-03-22T11:16:58;100184.25;;;17.76;68.81
7168;BME280;3625;51.762;14.320;2023-03-22T11:19:33;100187.50;;;18.13;62.84
7168;BME280;3625;51.762;14.320;2023-03-22T11:22:03;100177.09;;;18.38;63.57
7168;BME280;3625;51.762;14.320;2023-03-22T11:24:34;100178.25;;;18.18;61.39
7168;BME280;3625;51.762;14.320;2023-03-22T11:27:06;100176.38;;;18.20;61.17
7168;BME280;3625;51.762;14.320;2023-03-22T11:29:43;100162.16;;;17.88;61.51
7168;BME280;3625;51.762;14.320;2023-03-22T11:32:25;100167.06;;;17.96;60.85
7168;BME280;3625;51.762;14.320;2023-03-22T11:35:00;100145.53;;;18.13;62.98
7168;BME280;3625;51.762;14.320;2023-03-22T11:37:29;100163.31;;;18.30;60.80
7168;BME280;3625;51.762;14.320;2023-03-22T11:40:02;100158.50;;;18.05;55.91
7168;BME280;3625;51.762;14.320;2023-03-22T11:42:41;100160.03;;;18.25;54.90
7168;BME280;3625;51.762;14.320;2023-03-22T11:45:14;100157.03;;;17.99;53.86
7168;BME280;3625;51.762;14.320;2023-03-22T11:47:44;100151.09;;;17.94;53.57
7168;BME280;3625;51.762;14.320;2023-03-22T11:50:26;100147.34;;;18.13;54.16
7168;BME280;3625;51.762;14.320;2023-03-22T11:52:56;100140.84;;;18.32;54.02
7168;BME280;3625;51.762;14.320;2023-03-22T11:55:25;100133.22;;;18.40;53.18
7168;BME280;3625;51.762;14.320;2023-03-22T11:57:54;100128.94;;;18.22;52.87
7168;BME280;3625;51.762;14.320;2023-03-22T12:00:26;100129.31;;;18.00;54.32
7168;BME280;3625;51.762;14.320;2023-03-22T12:03:01;100133.25;;;18.25;53.08
7168;BME280;3625;51.762;14.320;2023-03-22T12:05:37;100120.66;;;18.57;52.48
7168;BME280;3625;51.762;14.320;2023-03-22T12:08:15;100138.91;;;18.34;49.95
7168;BME280;3625;51.762;14.320;2023-03-22T12:10:49;100126.63;;;18.46;50.23
7168;BME280;3625;51.762;14.320;2023-03-22T12:13:22;100127.50;;;18.91;49.90
7168;BME280;3625;51.762;14.320;2023-03-22T12:15:57;100132.94;;;19.32;47.19
7168;BME280;3625;51.762;14.320;2023-03-22T12:18:31;100125.38;;;19.52;47.63
7168;BME280;3625;51.762;14.320;2023-03-22T12:21:02;100141.47;;;19.52;46.84
7168;BME280;3625;51.762;14.320;2023-03-22T12:23:32;100128.75;;;18.85;46.37
7168;BME280;3625;51.762;14.320;2023-03-22T12:26:04;100123.63;;;18.80;47.14
7168;BME280;3625;51.762;14.320;2023-03-22T12:28:38;100129.69;;;18.84;46.19
7168;BME280;3625;51.762;14.320;2023-03-22T12:31:14;100090.38;;;18.55;46.72
7168;BME280;3625;51.762;14.320;2023-03-22T12:33:46;100120.19;;;18.64;46.91
7168;BME280;3625;51.762;14.320;2023-03-22T12:36:18;100131.72;;;18.51;47.47
7168;BME280;3625;51.762;14.320;2023-03-22T12:38:49;100124.38;;;18.24;46.44
7168;BME280;3625;51.762;14.320;2023-03-22T12:41:25;100130.63;;;18.39;47.11
7168;BME280;3625;51.762;14.320;2023-03-22T12:43:58;100116.63;;;18.64;46.84
7168;BME280;3625;51.762;14.320;2023-03-22T12:46:34;100120.28;;;18.77;46.66
7168;BME280;3625;51.762;14.320;2023-03-22T12:49:10;100123.16;;;18.74;46.22
7168;BME280;3625;51.762;14.320;2023-03-22T12:51:44;100115.28;;;18.57;46.35
7168;BME280;3625;51.762;14.320;2023-03-22T12:54:14;100108.50;;;18.65;46.57
7168;BME280;3625;51.762;14.320;2023-03-22T12:56:46;100112.19;;;18.93;46.34
7168;BME280;3625;51.762;14.320;2023-03-22T12:59:19;100108.59;;;19.49;45.79
7168;BME280;3625;51.762;14.320;2023-03-22T13:01:55;100105.59;;;19.94;45.02
7168;BME280;3625;51.762;14.320;2023-03-22T13:04:31;100038.94;;;19.74;44.60
7168;BME280;3625;51.762;14.320;2023-03-22T13:07:16;100106.47;;;19.95;45.27
7168;BME280;3625;51.762;14.320;2023-03-22T13:09:59;100108.28;;;19.68;44.80
7168;BME280;3625;51.762;14.320;2023-03-22T13:12:30;100101.44;;;19.07;45.47
7168;BME280;3625;51.762;14.320;2023-03-22T13:15:16;100088.97;;;19.20;46.07
7168;BME280;3625;51.762;14.320;2023-03-22T13:18:27;100088.81;;;19.64;45.22
7168;BME280;3625;51.762;14.320;2023-03-22T13:21:13;100085.28;;;19.90;44.79
7168;BME280;3625;51.762;14.320;2023-03-22T13:23:57;100081.19;;;19.30;45.02
7168;BME280;3625;51.762;14.320;2023-03-22T13:26:36;100068.09;;;18.68;45.66
7168;BME280;3625;51.762;14.320;2023-03-22T13:29:13;100070.19;;;18.19;46.91
7168;BME280;3625;51.762;14.320;2023-03-22T13:31:45;100064.66;;;17.92;48.07
7168;BME280;3625;51.762;14.320;2023-03-22T13:34:18;100059.91;;;17.97;49.00
7168;BME280;3625;51.762;14.320;2023-03-22T13:36:50;100050.28;;;18.09;49.30
7168;BME280;3625;51.762;14.320;2023-03-22T13:39:21;100056.69;;;18.06;48.96
7168;BME280;3625;51.762;14.320;2023-03-22T13:42:05;100053.94;;;17.92;48.43
7168;BME280;3625;51.762;14.320;2023-03-22T13:44:39;100044.94;;;17.79;49.49
7168;BME280;3625;51.762;14.320;2023-03-22T13:47:30;100037.69;;;17.81;49.87
7168;BME280;3625;51.762;14.320;2023-03-22T13:50:10;100028.63;;;17.68;49.25